Timiskaming Regional Airport
CYXR : now visible

Airfield :











YOU CAN JOIN US ON...

 
LOGIN :

Register | Disclaimer

   EN    FR    IT 

 









Legend :    VFR   Marginal VFR   IFR   Intensive IFR   Very Intensive IFR
Visi :
Ceiling :
>= 8 km
>= 3000ft
5 to 8 km
1000 to 3000 ft
1500m to 5 km
500 to 1000 ft
800 to 1500m
200 to 500 ft
< 800m
< 200 ft
Symbols :   Thunderstorms  Fog  Heavy snow  Heavy precipitations  Wind > 20 kt






- Airport Elevation : 798 ft
- IATA code : YXR


CYXR - Timiskaming Regional

CURRENT METAR :
  • 081700Z AUTO 17004KT 9SM -RA OVC029 01/M05 A2961 RMK SLP040

EXPIRED METARs :
  • 081625Z AUTO 17003KT 9SM BKN031 OVC039 00/M05 A2961 RMK SLP040
  • 081603Z AUTO 14002KT 9SM -RA SCT033 OVC042 00/M04 A2961 RMK SLP042
  • 081500Z AUTO 12004KT 9SM OVC050 M00/M05 A2962 RMK SLP043

TAF TAF CYXR
Valid from the 08 at 12:00 until the 09 at 00:00 UTC


081138Z 0812/0824 VRB03KT P6SM OVC060
TEMPO 0812/0815 P6SM -RA BKN020 OVC060
PROB30 0812/0815 OVC008
FM081500 13008KT P6SM BKN040 OVC080
TEMPO 0815/0824 P6SM -RA BKN020 OVC040 RMK FCST BASED ON AUTO OBS. NXT FCST BY 081800Z



MET'MAP, your aeronautical weather chart ! - Copyright ORBIFLY December 2007 - Disclaimer

ORBIFLY MET'MAP TEAM :

Programming & Development : Alexandra Zaïnal
Concept & original design : Baudouin d'Aumeries
Assistance for programming : Marc-Olivier Méhu
Technical & hardware support : Manuel Goepfert

Contact : metmap@orbifly.com




SOURCES & CREDITS :

   NOAA       Earth
Advisory